sensor_id;sensor_type;location;lat;lon;timestamp;pressure;altitude;pressure_sealevel;temperature
49557;BMP280;35462;45.048;7.666;2023-09-19T00:02:39;98660.72;;;23.08
49557;BMP280;35462;45.048;7.666;2023-09-19T00:17:58;98652.59;;;23.03
49557;BMP280;35462;45.048;7.666;2023-09-19T00:33:18;98654.81;;;22.93
49557;BMP280;35462;45.048;7.666;2023-09-19T00:48:41;98640.78;;;22.84
49557;BMP280;35462;45.048;7.666;2023-09-19T01:04:02;98645.00;;;22.79
49557;BMP280;35462;45.048;7.666;2023-09-19T01:20:03;98647.41;;;22.77
49557;BMP280;35462;45.048;7.666;2023-09-19T01:35:24;98650.84;;;22.67
49557;BMP280;35462;45.048;7.666;2023-09-19T01:51:07;98648.13;;;22.67
49557;BMP280;35462;45.048;7.666;2023-09-19T02:06:25;98650.34;;;22.63
49557;BMP280;35462;45.048;7.666;2023-09-19T02:21:46;98649.09;;;22.53
49557;BMP280;35462;45.048;7.666;2023-09-19T02:37:07;98629.94;;;22.46
49557;BMP280;35462;45.048;7.666;2023-09-19T02:52:28;98633.63;;;22.43
49557;BMP280;35462;45.048;7.666;2023-09-19T03:07:47;98632.09;;;22.31
49557;BMP280;35462;45.048;7.666;2023-09-19T03:23:10;98640.22;;;22.31
49557;BMP280;35462;45.048;7.666;2023-09-19T03:38:30;98633.34;;;22.35
49557;BMP280;35462;45.048;7.666;2023-09-19T03:53:49;98619.34;;;22.37
49557;BMP280;35462;45.048;7.666;2023-09-19T04:09:09;98620.09;;;22.37
49557;BMP280;35462;45.048;7.666;2023-09-19T04:24:28;98628.47;;;22.39
49557;BMP280;35462;45.048;7.666;2023-09-19T04:39:47;98622.31;;;22.39
49557;BMP280;35462;45.048;7.666;2023-09-19T04:55:09;98645.38;;;22.40
49557;BMP280;35462;45.048;7.666;2023-09-19T05:10:28;98667.47;;;22.38
49557;BMP280;35462;45.048;7.666;2023-09-19T05:25:48;98673.31;;;22.37
49557;BMP280;35462;45.048;7.666;2023-09-19T05:41:08;98693.72;;;22.43
49557;BMP280;35462;45.048;7.666;2023-09-19T05:56:33;98712.91;;;22.50
49557;BMP280;35462;45.048;7.666;2023-09-19T06:11:52;98717.34;;;22.64
49557;BMP280;35462;45.048;7.666;2023-09-19T06:27:11;98716.41;;;22.95
49557;BMP280;35462;45.048;7.666;2023-09-19T06:42:31;98733.16;;;23.31
49557;BMP280;35462;45.048;7.666;2023-09-19T06:57:50;98741.53;;;23.28
49557;BMP280;35462;45.048;7.666;2023-09-19T07:13:10;98735.88;;;23.15
49557;BMP280;35462;45.048;7.666;2023-09-19T07:28:29;98737.84;;;23.58
49557;BMP280;35462;45.048;7.666;2023-09-19T07:43:49;98745.94;;;23.69
49557;BMP280;35462;45.048;7.666;2023-09-19T07:59:08;98772.47;;;23.87
49557;BMP280;35462;45.048;7.666;2023-09-19T08:14:30;98791.59;;;24.22
49557;BMP280;35462;45.048;7.666;2023-09-19T08:29:49;98806.09;;;24.24
49557;BMP280;35462;45.048;7.666;2023-09-19T08:45:16;98820.59;;;24.37
49557;BMP280;35462;45.048;7.666;2023-09-19T09:00:36;98818.59;;;24.38
49557;BMP280;35462;45.048;7.666;2023-09-19T09:15:55;98808.75;;;24.40
49557;BMP280;35462;45.048;7.666;2023-09-19T09:31:24;98805.78;;;24.49
49557;BMP280;35462;45.048;7.666;2023-09-19T09:46:47;98803.75;;;24.55
49557;BMP280;35462;45.048;7.666;2023-09-19T10:02:28;98807.41;;;24.74
49557;BMP280;35462;45.048;7.666;2023-09-19T10:17:48;98803.50;;;24.64
49557;BMP280;35462;45.048;7.666;2023-09-19T10:33:08;98797.53;;;24.71
49557;BMP280;35462;45.048;7.666;2023-09-19T10:48:27;98782.22;;;24.79
49557;BMP280;35462;45.048;7.666;2023-09-19T11:03:47;98769.53;;;24.98
49557;BMP280;35462;45.048;7.666;2023-09-19T11:19:07;98757.31;;;25.21
49557;BMP280;35462;45.048;7.666;2023-09-19T11:49:55;98740.22;;;25.55
49557;BMP280;35462;45.048;7.666;2023-09-19T12:05:16;98726.50;;;25.71
49557;BMP280;35462;45.048;7.666;2023-09-19T12:20:45;98705.84;;;25.87
49557;BMP280;35462;45.048;7.666;2023-09-19T12:36:22;98685.41;;;26.04
49557;BMP280;35462;45.048;7.666;2023-09-19T12:51:48;98689.50;;;26.11
49557;BMP280;35462;45.048;7.666;2023-09-19T13:07:41;98669.19;;;26.17
49557;BMP280;35462;45.048;7.666;2023-09-19T13:23:26;98668.00;;;26.31
49557;BMP280;35462;45.048;7.666;2023-09-19T13:38:45;98657.72;;;26.42
49557;BMP280;35462;45.048;7.666;2023-09-19T13:54:07;98645.53;;;26.49
49557;BMP280;35462;45.048;7.666;2023-09-19T14:09:27;98649.75;;;26.63
49557;BMP280;35462;45.048;7.666;2023-09-19T14:24:48;98642.22;;;26.68
49557;BMP280;35462;45.048;7.666;2023-09-19T14:40:09;98633.47;;;26.75
49557;BMP280;35462;45.048;7.666;2023-09-19T14:55:28;98629.72;;;26.78
49557;BMP280;35462;45.048;7.666;2023-09-19T15:10:52;98624.28;;;26.78
49557;BMP280;35462;45.048;7.666;2023-09-19T15:26:13;98616.31;;;26.80
49557;BMP280;35462;45.048;7.666;2023-09-19T15:41:45;98629.84;;;26.86
49557;BMP280;35462;45.048;7.666;2023-09-19T15:57:08;98642.47;;;26.83
49557;BMP280;35462;45.048;7.666;2023-09-19T16:12:27;98644.56;;;26.77
49557;BMP280;35462;45.048;7.666;2023-09-19T16:27:47;98639.44;;;26.74
49557;BMP280;35462;45.048;7.666;2023-09-19T16:43:06;98632.09;;;26.69
49557;BMP280;35462;45.048;7.666;2023-09-19T16:58:26;98653.00;;;26.61
49557;BMP280;35462;45.048;7.666;2023-09-19T17:13:46;98655.47;;;26.59
49557;BMP280;35462;45.048;7.666;2023-09-19T17:29:08;98672.38;;;26.52
49557;BMP280;35462;45.048;7.666;2023-09-19T17:44:29;98680.72;;;26.41
49557;BMP280;35462;45.048;7.666;2023-09-19T17:59:53;98702.38;;;26.28
49557;BMP280;35462;45.048;7.666;2023-09-19T18:15:13;98706.97;;;26.15
49557;BMP280;35462;45.048;7.666;2023-09-19T18:30:32;98711.31;;;26.05
49557;BMP280;35462;45.048;7.666;2023-09-19T18:45:57;98721.56;;;25.94
49557;BMP280;35462;45.048;7.666;2023-09-19T19:01:17;98728.94;;;25.75
49557;BMP280;35462;45.048;7.666;2023-09-19T19:16:38;98751.25;;;25.62
49557;BMP280;35462;45.048;7.666;2023-09-19T19:31:57;98765.47;;;25.50
49557;BMP280;35462;45.048;7.666;2023-09-19T19:47:17;98783.03;;;25.38
49557;BMP280;35462;45.048;7.666;2023-09-19T20:02:36;98805.31;;;25.26
49557;BMP280;35462;45.048;7.666;2023-09-19T20:17:55;98815.06;;;25.10
49557;BMP280;35462;45.048;7.666;2023-09-19T20:33:18;98828.19;;;25.01
49557;BMP280;35462;45.048;7.666;2023-09-19T20:48:41;98825.03;;;24.92
49557;BMP280;35462;45.048;7.666;2023-09-19T21:04:02;98829.75;;;24.80
49557;BMP280;35462;45.048;7.666;2023-09-19T21:19:22;98835.22;;;24.69
49557;BMP280;35462;45.048;7.666;2023-09-19T21:34:41;98838.25;;;24.60
49557;BMP280;35462;45.048;7.666;2023-09-19T21:50:01;98843.66;;;24.55
49557;BMP280;35462;45.048;7.666;2023-09-19T22:05:25;98856.72;;;24.45
49557;BMP280;35462;45.048;7.666;2023-09-19T22:20:46;98874.00;;;24.37
49557;BMP280;35462;45.048;7.666;2023-09-19T22:36:09;98880.41;;;24.29
49557;BMP280;35462;45.048;7.666;2023-09-19T22:51:28;98865.94;;;24.21
49557;BMP280;35462;45.048;7.666;2023-09-19T23:06:57;98876.75;;;24.21
49557;BMP280;35462;45.048;7.666;2023-09-19T23:22:24;98888.81;;;24.14
49557;BMP280;35462;45.048;7.666;2023-09-19T23:37:47;98883.38;;;24.14
49557;BMP280;35462;45.048;7.666;2023-09-19T23:53:08;98899.16;;;24.10
